sensor_id;sensor_type;location;lat;lon;timestamp;P1;durP1;ratioP1;P2;durP2;ratioP2
37647;SDS011;23490;53.656;10.076;2023-05-29T00:01:49;8.35;;;1.90;;
37647;SDS011;23490;53.656;10.076;2023-05-29T00:04:15;9.32;;;1.75;;
37647;SDS011;23490;53.656;10.076;2023-05-29T00:06:40;9.73;;;2.60;;
37647;SDS011;23490;53.656;10.076;2023-05-29T00:09:06;8.50;;;2.05;;
37647;SDS011;23490;53.656;10.076;2023-05-29T00:11:31;8.80;;;2.28;;
37647;SDS011;23490;53.656;10.076;2023-05-29T00:13:57;6.22;;;1.45;;
37647;SDS011;23490;53.656;10.076;2023-05-29T00:16:22;9.90;;;2.75;;
37647;SDS011;23490;53.656;10.076;2023-05-29T00:18:49;6.82;;;2.22;;
37647;SDS011;23490;53.656;10.076;2023-05-29T00:21:15;11.68;;;2.30;;
37647;SDS011;23490;53.656;10.076;2023-05-29T00:23:41;9.35;;;2.35;;
37647;SDS011;23490;53.656;10.076;2023-05-29T00:26:06;10.25;;;2.25;;
37647;SDS011;23490;53.656;10.076;2023-05-29T00:28:32;8.93;;;2.75;;
37647;SDS011;23490;53.656;10.076;2023-05-29T00:30:57;10.38;;;2.58;;
37647;SDS011;23490;53.656;10.076;2023-05-29T00:33:23;9.13;;;2.38;;
37647;SDS011;23490;53.656;10.076;2023-05-29T00:35:48;10.35;;;2.28;;
37647;SDS011;23490;53.656;10.076;2023-05-29T00:38:14;8.57;;;1.90;;
37647;SDS011;23490;53.656;10.076;2023-05-29T00:40:39;12.75;;;2.72;;
37647;SDS011;23490;53.656;10.076;2023-05-29T00:43:05;7.00;;;2.33;;
37647;SDS011;23490;53.656;10.076;2023-05-29T00:45:30;12.57;;;2.67;;
37647;SDS011;23490;53.656;10.076;2023-05-29T00:47:57;10.15;;;2.20;;
37647;SDS011;23490;53.656;10.076;2023-05-29T00:50:23;8.98;;;1.83;;
37647;SDS011;23490;53.656;10.076;2023-05-29T00:52:48;10.82;;;2.00;;
37647;SDS011;23490;53.656;10.076;2023-05-29T00:55:15;7.63;;;2.20;;
37647;SDS011;23490;53.656;10.076;2023-05-29T00:57:41;9.45;;;2.25;;
37647;SDS011;23490;53.656;10.076;2023-05-29T01:00:07;10.82;;;3.05;;
37647;SDS011;23490;53.656;10.076;2023-05-29T01:02:35;13.40;;;2.22;;
37647;SDS011;23490;53.656;10.076;2023-05-29T01:05:03;14.13;;;2.83;;
37647;SDS011;23490;53.656;10.076;2023-05-29T01:07:28;13.45;;;2.90;;
37647;SDS011;23490;53.656;10.076;2023-05-29T01:09:53;8.68;;;2.13;;
37647;SDS011;23490;53.656;10.076;2023-05-29T01:12:40;9.02;;;2.95;;
37647;SDS011;23490;53.656;10.076;2023-05-29T01:18:00;9.90;;;1.92;;
37647;SDS011;23490;53.656;10.076;2023-05-29T01:20:57;10.82;;;2.85;;
37647;SDS011;23490;53.656;10.076;2023-05-29T01:29:00;13.80;;;2.47;;
37647;SDS011;23490;53.656;10.076;2023-05-29T01:31:27;12.40;;;2.20;;
37647;SDS011;23490;53.656;10.076;2023-05-29T01:36:23;11.37;;;3.17;;
37647;SDS011;23490;53.656;10.076;2023-05-29T01:38:52;8.98;;;2.10;;
37647;SDS011;23490;53.656;10.076;2023-05-29T01:41:19;14.82;;;3.38;;
37647;SDS011;23490;53.656;10.076;2023-05-29T01:43:46;10.98;;;2.22;;
37647;SDS011;23490;53.656;10.076;2023-05-29T01:46:13;10.93;;;2.42;;
37647;SDS011;23490;53.656;10.076;2023-05-29T01:48:40;7.80;;;2.33;;
37647;SDS011;23490;53.656;10.076;2023-05-29T01:51:08;12.98;;;2.13;;
37647;SDS011;23490;53.656;10.076;2023-05-29T01:53:38;11.25;;;2.08;;
37647;SDS011;23490;53.656;10.076;2023-05-29T01:56:07;7.80;;;2.17;;
37647;SDS011;23490;53.656;10.076;2023-05-29T01:58:34;11.07;;;2.10;;
37647;SDS011;23490;53.656;10.076;2023-05-29T02:01:01;10.82;;;1.88;;
37647;SDS011;23490;53.656;10.076;2023-05-29T02:03:26;8.82;;;2.00;;
37647;SDS011;23490;53.656;10.076;2023-05-29T02:05:56;12.68;;;2.95;;
37647;SDS011;23490;53.656;10.076;2023-05-29T02:08:22;13.27;;;2.38;;
37647;SDS011;23490;53.656;10.076;2023-05-29T02:10:47;10.95;;;1.95;;
37647;SDS011;23490;53.656;10.076;2023-05-29T02:13:13;15.00;;;2.55;;
37647;SDS011;23490;53.656;10.076;2023-05-29T02:15:38;12.65;;;2.97;;
37647;SDS011;23490;53.656;10.076;2023-05-29T02:18:03;17.67;;;3.35;;
37647;SDS011;23490;53.656;10.076;2023-05-29T02:20:29;10.70;;;2.38;;
37647;SDS011;23490;53.656;10.076;2023-05-29T02:22:54;9.88;;;2.72;;
37647;SDS011;23490;53.656;10.076;2023-05-29T02:25:19;11.50;;;2.50;;
37647;SDS011;23490;53.656;10.076;2023-05-29T02:27:45;14.68;;;2.15;;
37647;SDS011;23490;53.656;10.076;2023-05-29T02:30:10;16.75;;;2.88;;
37647;SDS011;23490;53.656;10.076;2023-05-29T02:32:36;11.27;;;2.50;;
37647;SDS011;23490;53.656;10.076;2023-05-29T02:35:02;11.13;;;2.20;;
37647;SDS011;23490;53.656;10.076;2023-05-29T02:37:28;14.95;;;2.35;;
37647;SDS011;23490;53.656;10.076;2023-05-29T02:39:53;9.35;;;2.33;;
37647;SDS011;23490;53.656;10.076;2023-05-29T02:42:18;17.38;;;3.42;;
37647;SDS011;23490;53.656;10.076;2023-05-29T02:44:44;11.82;;;2.95;;
37647;SDS011;23490;53.656;10.076;2023-05-29T02:47:09;17.77;;;3.55;;
37647;SDS011;23490;53.656;10.076;2023-05-29T02:49:34;12.98;;;3.03;;
37647;SDS011;23490;53.656;10.076;2023-05-29T02:52:00;9.05;;;2.13;;
37647;SDS011;23490;53.656;10.076;2023-05-29T02:54:25;14.50;;;2.67;;
37647;SDS011;23490;53.656;10.076;2023-05-29T02:56:51;10.00;;;2.20;;
37647;SDS011;23490;53.656;10.076;2023-05-29T02:59:17;11.13;;;3.17;;
37647;SDS011;23490;53.656;10.076;2023-05-29T03:01:42;11.43;;;2.60;;
37647;SDS011;23490;53.656;10.076;2023-05-29T03:04:09;12.50;;;3.72;;
37647;SDS011;23490;53.656;10.076;2023-05-29T03:06:35;14.05;;;3.15;;
37647;SDS011;23490;53.656;10.076;2023-05-29T03:09:01;8.32;;;2.92;;
37647;SDS011;23490;53.656;10.076;2023-05-29T03:11:27;14.63;;;2.35;;
37647;SDS011;23490;53.656;10.076;2023-05-29T03:13:53;15.13;;;3.03;;
37647;SDS011;23490;53.656;10.076;2023-05-29T03:16:19;15.32;;;3.03;;
37647;SDS011;23490;53.656;10.076;2023-05-29T03:18:45;11.50;;;2.63;;
37647;SDS011;23490;53.656;10.076;2023-05-29T03:21:10;9.02;;;3.08;;
37647;SDS011;23490;53.656;10.076;2023-05-29T03:23:35;17.38;;;2.50;;
37647;SDS011;23490;53.656;10.076;2023-05-29T03:26:01;10.77;;;2.22;;
37647;SDS011;23490;53.656;10.076;2023-05-29T03:28:27;13.77;;;2.45;;
37647;SDS011;23490;53.656;10.076;2023-05-29T03:30:53;8.45;;;2.45;;
37647;SDS011;23490;53.656;10.076;2023-05-29T03:33:18;13.77;;;2.63;;
37647;SDS011;23490;53.656;10.076;2023-05-29T03:35:43;15.93;;;2.72;;
37647;SDS011;23490;53.656;10.076;2023-05-29T03:38:09;14.07;;;2.75;;
37647;SDS011;23490;53.656;10.076;2023-05-29T03:40:34;13.02;;;2.83;;
37647;SDS011;23490;53.656;10.076;2023-05-29T03:43:00;20.75;;;3.38;;
37647;SDS011;23490;53.656;10.076;2023-05-29T03:45:25;10.18;;;3.08;;
37647;SDS011;23490;53.656;10.076;2023-05-29T03:47:52;11.55;;;2.60;;
37647;SDS011;23490;53.656;10.076;2023-05-29T03:50:17;14.23;;;3.35;;
37647;SDS011;23490;53.656;10.076;2023-05-29T03:52:42;10.75;;;2.90;;
37647;SDS011;23490;53.656;10.076;2023-05-29T03:55:08;9.05;;;2.50;;
37647;SDS011;23490;53.656;10.076;2023-05-29T03:57:38;14.73;;;2.97;;
37647;SDS011;23490;53.656;10.076;2023-05-29T04:00:06;12.13;;;2.40;;
37647;SDS011;23490;53.656;10.076;2023-05-29T04:02:32;18.67;;;3.35;;
37647;SDS011;23490;53.656;10.076;2023-05-29T04:04:58;9.60;;;2.47;;
37647;SDS011;23490;53.656;10.076;2023-05-29T04:07:23;13.98;;;2.55;;
37647;SDS011;23490;53.656;10.076;2023-05-29T04:09:49;12.25;;;2.72;;
37647;SDS011;23490;53.656;10.076;2023-05-29T04:12:14;12.63;;;3.08;;
37647;SDS011;23490;53.656;10.076;2023-05-29T04:14:41;16.60;;;2.78;;
37647;SDS011;23490;53.656;10.076;2023-05-29T04:17:07;12.75;;;3.28;;
37647;SDS011;23490;53.656;10.076;2023-05-29T04:19:32;15.30;;;2.78;;
37647;SDS011;23490;53.656;10.076;2023-05-29T04:21:57;14.90;;;3.53;;
37647;SDS011;23490;53.656;10.076;2023-05-29T04:24:23;16.95;;;2.55;;
37647;SDS011;23490;53.656;10.076;2023-05-29T04:26:49;11.63;;;2.47;;
37647;SDS011;23490;53.656;10.076;2023-05-29T04:29:16;9.05;;;3.05;;
37647;SDS011;23490;53.656;10.076;2023-05-29T04:31:42;10.95;;;2.53;;
37647;SDS011;23490;53.656;10.076;2023-05-29T04:34:07;18.83;;;2.42;;
37647;SDS011;23490;53.656;10.076;2023-05-29T04:36:33;12.27;;;2.95;;
37647;SDS011;23490;53.656;10.076;2023-05-29T04:39:03;12.98;;;3.58;;
37647;SDS011;23490;53.656;10.076;2023-05-29T04:41:29;12.35;;;2.42;;
37647;SDS011;23490;53.656;10.076;2023-05-29T04:43:56;16.35;;;2.97;;
37647;SDS011;23490;53.656;10.076;2023-05-29T04:46:22;11.18;;;2.38;;
37647;SDS011;23490;53.656;10.076;2023-05-29T04:48:49;12.35;;;2.72;;
37647;SDS011;23490;53.656;10.076;2023-05-29T04:51:18;15.70;;;3.60;;
37647;SDS011;23490;53.656;10.076;2023-05-29T04:53:45;11.90;;;3.22;;
37647;SDS011;23490;53.656;10.076;2023-05-29T04:56:11;17.27;;;3.17;;
37647;SDS011;23490;53.656;10.076;2023-05-29T04:58:37;12.73;;;2.53;;
37647;SDS011;23490;53.656;10.076;2023-05-29T05:01:03;9.05;;;2.38;;
37647;SDS011;23490;53.656;10.076;2023-05-29T05:03:29;11.75;;;2.42;;
37647;SDS011;23490;53.656;10.076;2023-05-29T05:05:59;10.80;;;2.75;;
37647;SDS011;23490;53.656;10.076;2023-05-29T05:08:25;14.60;;;2.30;;
37647;SDS011;23490;53.656;10.076;2023-05-29T05:10:50;13.43;;;2.55;;
37647;SDS011;23490;53.656;10.076;2023-05-29T05:13:15;11.48;;;2.70;;
37647;SDS011;23490;53.656;10.076;2023-05-29T05:15:41;10.35;;;2.40;;
37647;SDS011;23490;53.656;10.076;2023-05-29T05:18:06;11.52;;;3.00;;
37647;SDS011;23490;53.656;10.076;2023-05-29T05:20:32;15.93;;;2.42;;
37647;SDS011;23490;53.656;10.076;2023-05-29T05:22:57;14.35;;;3.35;;
37647;SDS011;23490;53.656;10.076;2023-05-29T05:25:24;12.73;;;2.67;;
37647;SDS011;23490;53.656;10.076;2023-05-29T05:27:50;12.82;;;3.13;;
37647;SDS011;23490;53.656;10.076;2023-05-29T05:30:15;13.00;;;2.22;;
37647;SDS011;23490;53.656;10.076;2023-05-29T05:32:41;10.13;;;2.60;;
37647;SDS011;23490;53.656;10.076;2023-05-29T05:35:06;10.32;;;2.50;;
37647;SDS011;23490;53.656;10.076;2023-05-29T05:37:33;14.10;;;3.15;;
37647;SDS011;23490;53.656;10.076;2023-05-29T05:39:58;11.07;;;2.33;;
37647;SDS011;23490;53.656;10.076;2023-05-29T05:42:25;12.27;;;3.53;;
37647;SDS011;23490;53.656;10.076;2023-05-29T05:44:50;15.90;;;2.90;;
37647;SDS011;23490;53.656;10.076;2023-05-29T05:47:16;15.70;;;2.97;;
37647;SDS011;23490;53.656;10.076;2023-05-29T05:49:41;12.23;;;2.60;;
37647;SDS011;23490;53.656;10.076;2023-05-29T05:52:08;15.43;;;2.58;;
37647;SDS011;23490;53.656;10.076;2023-05-29T05:54:34;16.65;;;2.88;;
37647;SDS011;23490;53.656;10.076;2023-05-29T05:57:02;14.10;;;3.25;;
37647;SDS011;23490;53.656;10.076;2023-05-29T05:59:28;13.48;;;3.40;;
37647;SDS011;23490;53.656;10.076;2023-05-29T06:01:53;12.63;;;2.40;;
37647;SDS011;23490;53.656;10.076;2023-05-29T06:04:20;14.40;;;2.83;;
37647;SDS011;23490;53.656;10.076;2023-05-29T06:06:45;16.63;;;3.20;;
37647;SDS011;23490;53.656;10.076;2023-05-29T06:09:10;14.10;;;2.72;;
37647;SDS011;23490;53.656;10.076;2023-05-29T06:11:36;17.70;;;2.30;;
37647;SDS011;23490;53.656;10.076;2023-05-29T06:14:02;12.85;;;3.20;;
37647;SDS011;23490;53.656;10.076;2023-05-29T06:16:28;9.32;;;2.80;;
37647;SDS011;23490;53.656;10.076;2023-05-29T06:18:53;18.52;;;3.15;;
37647;SDS011;23490;53.656;10.076;2023-05-29T06:21:19;15.45;;;2.83;;
37647;SDS011;23490;53.656;10.076;2023-05-29T06:23:44;15.55;;;3.50;;
37647;SDS011;23490;53.656;10.076;2023-05-29T06:26:09;15.10;;;3.20;;
37647;SDS011;23490;53.656;10.076;2023-05-29T06:28:36;11.23;;;2.15;;
37647;SDS011;23490;53.656;10.076;2023-05-29T06:31:02;12.77;;;2.33;;
37647;SDS011;23490;53.656;10.076;2023-05-29T06:33:27;21.70;;;3.35;;
37647;SDS011;23490;53.656;10.076;2023-05-29T06:35:52;16.27;;;2.80;;
37647;SDS011;23490;53.656;10.076;2023-05-29T06:38:17;9.15;;;2.38;;
37647;SDS011;23490;53.656;10.076;2023-05-29T06:40:43;12.00;;;2.65;;
37647;SDS011;23490;53.656;10.076;2023-05-29T06:43:08;17.50;;;3.17;;
37647;SDS011;23490;53.656;10.076;2023-05-29T06:45:34;9.63;;;2.95;;
37647;SDS011;23490;53.656;10.076;2023-05-29T06:48:00;16.40;;;3.10;;
37647;SDS011;23490;53.656;10.076;2023-05-29T06:50:25;16.00;;;2.50;;
37647;SDS011;23490;53.656;10.076;2023-05-29T06:52:50;11.38;;;3.08;;
37647;SDS011;23490;53.656;10.076;2023-05-29T06:55:16;15.85;;;3.53;;
37647;SDS011;23490;53.656;10.076;2023-05-29T06:57:41;12.90;;;3.47;;
37647;SDS011;23490;53.656;10.076;2023-05-29T07:00:07;17.02;;;3.03;;
37647;SDS011;23490;53.656;10.076;2023-05-29T07:02:34;12.15;;;2.92;;
37647;SDS011;23490;53.656;10.076;2023-05-29T07:05:00;11.95;;;2.70;;
37647;SDS011;23490;53.656;10.076;2023-05-29T07:07:25;13.68;;;2.88;;
37647;SDS011;23490;53.656;10.076;2023-05-29T07:09:51;14.65;;;2.90;;
37647;SDS011;23490;53.656;10.076;2023-05-29T07:12:16;14.55;;;2.78;;
37647;SDS011;23490;53.656;10.076;2023-05-29T07:14:41;14.10;;;2.85;;
37647;SDS011;23490;53.656;10.076;2023-05-29T07:17:07;18.77;;;3.47;;
37647;SDS011;23490;53.656;10.076;2023-05-29T07:19:32;11.50;;;2.30;;
37647;SDS011;23490;53.656;10.076;2023-05-29T07:21:59;13.60;;;3.65;;
37647;SDS011;23490;53.656;10.076;2023-05-29T07:24:24;12.77;;;2.40;;
37647;SDS011;23490;53.656;10.076;2023-05-29T07:26:50;10.35;;;2.58;;
37647;SDS011;23490;53.656;10.076;2023-05-29T07:29:15;13.32;;;2.80;;
37647;SDS011;23490;53.656;10.076;2023-05-29T07:31:43;12.35;;;3.40;;
37647;SDS011;23490;53.656;10.076;2023-05-29T07:34:09;17.23;;;2.95;;
37647;SDS011;23490;53.656;10.076;2023-05-29T07:36:35;10.48;;;2.65;;
37647;SDS011;23490;53.656;10.076;2023-05-29T07:39:01;14.82;;;3.03;;
37647;SDS011;23490;53.656;10.076;2023-05-29T07:41:27;11.45;;;2.45;;
37647;SDS011;23490;53.656;10.076;2023-05-29T07:43:52;13.43;;;2.38;;
37647;SDS011;23490;53.656;10.076;2023-05-29T07:46:18;14.55;;;3.17;;
37647;SDS011;23490;53.656;10.076;2023-05-29T07:48:44;8.68;;;2.65;;
37647;SDS011;23490;53.656;10.076;2023-05-29T07:51:11;9.25;;;2.95;;
37647;SDS011;23490;53.656;10.076;2023-05-29T07:53:36;12.48;;;2.58;;
37647;SDS011;23490;53.656;10.076;2023-05-29T07:56:01;13.25;;;2.85;;
37647;SDS011;23490;53.656;10.076;2023-05-29T07:58:27;8.07;;;2.55;;
37647;SDS011;23490;53.656;10.076;2023-05-29T08:00:53;13.32;;;2.85;;
37647;SDS011;23490;53.656;10.076;2023-05-29T08:03:18;13.27;;;2.72;;
37647;SDS011;23490;53.656;10.076;2023-05-29T08:05:44;7.75;;;2.25;;
37647;SDS011;23490;53.656;10.076;2023-05-29T08:08:09;10.38;;;2.35;;
37647;SDS011;23490;53.656;10.076;2023-05-29T08:10:37;13.13;;;2.55;;
37647;SDS011;23490;53.656;10.076;2023-05-29T08:13:03;10.20;;;2.30;;
37647;SDS011;23490;53.656;10.076;2023-05-29T08:15:29;15.60;;;2.80;;
37647;SDS011;23490;53.656;10.076;2023-05-29T08:17:54;14.07;;;3.08;;
37647;SDS011;23490;53.656;10.076;2023-05-29T08:20:19;9.50;;;1.77;;
37647;SDS011;23490;53.656;10.076;2023-05-29T08:22:46;11.88;;;2.08;;
37647;SDS011;23490;53.656;10.076;2023-05-29T08:25:11;8.98;;;2.55;;
37647;SDS011;23490;53.656;10.076;2023-05-29T08:27:36;12.05;;;2.42;;
37647;SDS011;23490;53.656;10.076;2023-05-29T08:30:02;8.30;;;2.10;;
37647;SDS011;23490;53.656;10.076;2023-05-29T08:32:28;14.07;;;3.13;;
37647;SDS011;23490;53.656;10.076;2023-05-29T08:34:54;14.38;;;2.58;;
37647;SDS011;23490;53.656;10.076;2023-05-29T08:37:19;10.15;;;2.67;;
37647;SDS011;23490;53.656;10.076;2023-05-29T08:39:44;8.93;;;2.50;;
37647;SDS011;23490;53.656;10.076;2023-05-29T08:42:12;11.13;;;2.75;;
37647;SDS011;23490;53.656;10.076;2023-05-29T08:44:40;8.77;;;2.20;;
37647;SDS011;23490;53.656;10.076;2023-05-29T08:47:06;12.07;;;2.17;;
37647;SDS011;23490;53.656;10.076;2023-05-29T08:49:42;9.63;;;2.50;;
37647;SDS011;23490;53.656;10.076;2023-05-29T08:52:12;10.57;;;2.95;;
37647;SDS011;23490;53.656;10.076;2023-05-29T08:54:40;9.45;;;2.70;;
37647;SDS011;23490;53.656;10.076;2023-05-29T08:57:06;7.30;;;2.25;;
37647;SDS011;23490;53.656;10.076;2023-05-29T08:59:32;11.90;;;3.22;;
37647;SDS011;23490;53.656;10.076;2023-05-29T09:01:58;9.50;;;2.67;;
37647;SDS011;23490;53.656;10.076;2023-05-29T09:04:23;7.95;;;2.25;;
37647;SDS011;23490;53.656;10.076;2023-05-29T09:06:49;6.65;;;1.83;;
37647;SDS011;23490;53.656;10.076;2023-05-29T09:09:17;12.98;;;2.33;;
37647;SDS011;23490;53.656;10.076;2023-05-29T09:11:43;7.57;;;2.50;;
37647;SDS011;23490;53.656;10.076;2023-05-29T09:14:51;7.43;;;2.30;;
37647;SDS011;23490;53.656;10.076;2023-05-29T09:17:00;6.85;;;2.47;;
37647;SDS011;23490;53.656;10.076;2023-05-29T09:19:26;10.50;;;2.85;;
37647;SDS011;23490;53.656;10.076;2023-05-29T09:21:59;9.80;;;2.50;;
37647;SDS011;23490;53.656;10.076;2023-05-29T09:24:27;9.77;;;2.55;;
37647;SDS011;23490;53.656;10.076;2023-05-29T09:26:52;10.13;;;2.63;;
37647;SDS011;23490;53.656;10.076;2023-05-29T09:29:18;7.22;;;2.47;;
37647;SDS011;23490;53.656;10.076;2023-05-29T09:31:46;6.88;;;2.33;;
37647;SDS011;23490;53.656;10.076;2023-05-29T09:34:12;8.52;;;2.40;;
37647;SDS011;23490;53.656;10.076;2023-05-29T09:36:38;5.68;;;1.90;;
37647;SDS011;23490;53.656;10.076;2023-05-29T09:39:03;8.10;;;2.67;;
37647;SDS011;23490;53.656;10.076;2023-05-29T09:41:29;7.47;;;2.47;;
37647;SDS011;23490;53.656;10.076;2023-05-29T09:43:56;7.50;;;2.22;;
37647;SDS011;23490;53.656;10.076;2023-05-29T09:46:25;10.15;;;3.10;;
37647;SDS011;23490;53.656;10.076;2023-05-29T09:48:51;8.52;;;2.08;;
37647;SDS011;23490;53.656;10.076;2023-05-29T09:51:22;7.80;;;2.13;;
37647;SDS011;23490;53.656;10.076;2023-05-29T09:53:48;12.07;;;2.80;;
37647;SDS011;23490;53.656;10.076;2023-05-29T09:56:15;7.65;;;2.05;;
37647;SDS011;23490;53.656;10.076;2023-05-29T09:58:42;8.75;;;2.63;;
37647;SDS011;23490;53.656;10.076;2023-05-29T10:01:12;8.38;;;2.25;;
37647;SDS011;23490;53.656;10.076;2023-05-29T10:03:40;8.95;;;2.60;;
37647;SDS011;23490;53.656;10.076;2023-05-29T10:06:07;10.75;;;2.40;;
37647;SDS011;23490;53.656;10.076;2023-05-29T10:08:35;8.98;;;2.40;;
37647;SDS011;23490;53.656;10.076;2023-05-29T10:11:04;7.35;;;1.88;;
37647;SDS011;23490;53.656;10.076;2023-05-29T10:13:35;6.88;;;2.05;;
37647;SDS011;23490;53.656;10.076;2023-05-29T10:16:03;5.25;;;1.80;;
37647;SDS011;23490;53.656;10.076;2023-05-29T10:18:38;7.88;;;2.30;;
37647;SDS011;23490;53.656;10.076;2023-05-29T10:21:07;6.03;;;1.83;;
37647;SDS011;23490;53.656;10.076;2023-05-29T10:23:33;8.68;;;2.22;;
37647;SDS011;23490;53.656;10.076;2023-05-29T10:26:12;11.05;;;2.13;;
37647;SDS011;23490;53.656;10.076;2023-05-29T10:28:40;6.63;;;2.22;;
37647;SDS011;23490;53.656;10.076;2023-05-29T10:31:14;5.47;;;2.08;;
37647;SDS011;23490;53.656;10.076;2023-05-29T10:33:57;7.30;;;1.90;;
37647;SDS011;23490;53.656;10.076;2023-05-29T10:36:35;6.40;;;1.67;;
37647;SDS011;23490;53.656;10.076;2023-05-29T10:39:12;8.63;;;1.98;;
37647;SDS011;23490;53.656;10.076;2023-05-29T10:41:38;7.32;;;2.65;;
37647;SDS011;23490;53.656;10.076;2023-05-29T10:44:38;6.22;;;1.95;;
37647;SDS011;23490;53.656;10.076;2023-05-29T10:49:25;5.90;;;2.33;;
37647;SDS011;23490;53.656;10.076;2023-05-29T10:51:51;6.28;;;1.77;;
37647;SDS011;23490;53.656;10.076;2023-05-29T10:54:21;5.65;;;1.83;;
37647;SDS011;23490;53.656;10.076;2023-05-29T10:56:52;8.02;;;2.15;;
37647;SDS011;23490;53.656;10.076;2023-05-29T10:59:20;6.80;;;2.08;;
37647;SDS011;23490;53.656;10.076;2023-05-29T11:01:45;7.18;;;1.85;;
37647;SDS011;23490;53.656;10.076;2023-05-29T11:06:38;7.72;;;2.38;;
37647;SDS011;23490;53.656;10.076;2023-05-29T11:09:04;7.50;;;2.05;;
37647;SDS011;23490;53.656;10.076;2023-05-29T11:11:33;7.13;;;1.85;;
37647;SDS011;23490;53.656;10.076;2023-05-29T11:14:02;7.50;;;2.17;;
37647;SDS011;23490;53.656;10.076;2023-05-29T11:18:54;5.30;;;1.67;;
37647;SDS011;23490;53.656;10.076;2023-05-29T11:21:22;5.75;;;2.03;;
37647;SDS011;23490;53.656;10.076;2023-05-29T11:24:06;8.18;;;2.38;;
37647;SDS011;23490;53.656;10.076;2023-05-29T11:26:31;8.00;;;2.03;;
37647;SDS011;23490;53.656;10.076;2023-05-29T11:28:58;5.55;;;1.73;;
37647;SDS011;23490;53.656;10.076;2023-05-29T11:31:24;7.00;;;2.00;;
37647;SDS011;23490;53.656;10.076;2023-05-29T11:33:53;9.32;;;2.20;;
37647;SDS011;23490;53.656;10.076;2023-05-29T11:36:21;6.72;;;1.80;;
37647;SDS011;23490;53.656;10.076;2023-05-29T11:38:47;5.03;;;2.17;;
37647;SDS011;23490;53.656;10.076;2023-05-29T11:41:12;6.82;;;1.90;;
37647;SDS011;23490;53.656;10.076;2023-05-29T11:43:38;5.47;;;1.80;;
37647;SDS011;23490;53.656;10.076;2023-05-29T11:46:19;7.90;;;1.98;;
37647;SDS011;23490;53.656;10.076;2023-05-29T11:48:45;6.50;;;2.08;;
37647;SDS011;23490;53.656;10.076;2023-05-29T11:51:14;5.50;;;1.80;;
37647;SDS011;23490;53.656;10.076;2023-05-29T11:53:40;7.57;;;2.10;;
37647;SDS011;23490;53.656;10.076;2023-05-29T11:56:10;5.88;;;1.77;;
37647;SDS011;23490;53.656;10.076;2023-05-29T11:58:36;7.50;;;2.10;;
37647;SDS011;23490;53.656;10.076;2023-05-29T12:01:03;5.65;;;2.35;;
37647;SDS011;23490;53.656;10.076;2023-05-29T12:03:28;8.27;;;2.17;;
37647;SDS011;23490;53.656;10.076;2023-05-29T12:05:53;7.72;;;2.20;;
37647;SDS011;23490;53.656;10.076;2023-05-29T12:08:23;5.78;;;2.08;;
37647;SDS011;23490;53.656;10.076;2023-05-29T12:10:50;5.53;;;1.77;;
37647;SDS011;23490;53.656;10.076;2023-05-29T12:13:20;5.28;;;2.03;;
37647;SDS011;23490;53.656;10.076;2023-05-29T12:15:49;7.93;;;2.20;;
37647;SDS011;23490;53.656;10.076;2023-05-29T12:18:20;6.97;;;2.33;;
37647;SDS011;23490;53.656;10.076;2023-05-29T12:20:45;7.57;;;2.20;;
37647;SDS011;23490;53.656;10.076;2023-05-29T12:23:11;6.80;;;2.30;;
37647;SDS011;23490;53.656;10.076;2023-05-29T12:25:37;6.43;;;1.73;;
37647;SDS011;23490;53.656;10.076;2023-05-29T12:28:02;6.70;;;1.92;;
37647;SDS011;23490;53.656;10.076;2023-05-29T12:30:28;5.72;;;1.77;;
37647;SDS011;23490;53.656;10.076;2023-05-29T12:32:53;6.88;;;1.77;;
37647;SDS011;23490;53.656;10.076;2023-05-29T12:35:20;5.90;;;1.90;;
37647;SDS011;23490;53.656;10.076;2023-05-29T12:37:53;6.10;;;1.77;;
37647;SDS011;23490;53.656;10.076;2023-05-29T12:40:21;5.65;;;1.67;;
37647;SDS011;23490;53.656;10.076;2023-05-29T12:42:48;6.85;;;2.00;;
37647;SDS011;23490;53.656;10.076;2023-05-29T12:45:14;4.63;;;1.83;;
37647;SDS011;23490;53.656;10.076;2023-05-29T12:47:55;10.23;;;1.95;;
37647;SDS011;23490;53.656;10.076;2023-05-29T12:50:25;5.35;;;1.90;;
37647;SDS011;23490;53.656;10.076;2023-05-29T12:52:58;6.90;;;1.80;;
37647;SDS011;23490;53.656;10.076;2023-05-29T12:55:26;6.88;;;1.92;;
37647;SDS011;23490;53.656;10.076;2023-05-29T12:57:53;5.78;;;1.92;;
37647;SDS011;23490;53.656;10.076;2023-05-29T13:00:19;3.00;;;1.75;;
37647;SDS011;23490;53.656;10.076;2023-05-29T13:02:46;6.35;;;2.40;;
37647;SDS011;23490;53.656;10.076;2023-05-29T13:05:12;6.57;;;2.08;;
37647;SDS011;23490;53.656;10.076;2023-05-29T13:07:37;7.63;;;2.42;;
37647;SDS011;23490;53.656;10.076;2023-05-29T13:10:03;6.88;;;1.88;;
37647;SDS011;23490;53.656;10.076;2023-05-29T13:12:28;6.22;;;1.80;;
37647;SDS011;23490;53.656;10.076;2023-05-29T13:14:54;4.13;;;1.70;;
37647;SDS011;23490;53.656;10.076;2023-05-29T13:17:22;5.40;;;2.10;;
37647;SDS011;23490;53.656;10.076;2023-05-29T13:19:47;6.18;;;1.98;;
37647;SDS011;23490;53.656;10.076;2023-05-29T13:22:13;10.77;;;3.13;;
37647;SDS011;23490;53.656;10.076;2023-05-29T13:24:38;5.03;;;1.52;;
37647;SDS011;23490;53.656;10.076;2023-05-29T13:27:04;6.00;;;1.48;;
37647;SDS011;23490;53.656;10.076;2023-05-29T13:29:30;6.57;;;2.00;;
37647;SDS011;23490;53.656;10.076;2023-05-29T13:31:55;4.47;;;1.88;;
37647;SDS011;23490;53.656;10.076;2023-05-29T13:34:21;4.45;;;1.73;;
37647;SDS011;23490;53.656;10.076;2023-05-29T13:36:48;7.40;;;2.20;;
37647;SDS011;23490;53.656;10.076;2023-05-29T13:39:13;4.85;;;2.10;;
37647;SDS011;23490;53.656;10.076;2023-05-29T13:41:39;4.55;;;1.95;;
37647;SDS011;23490;53.656;10.076;2023-05-29T13:44:04;5.05;;;1.80;;
37647;SDS011;23490;53.656;10.076;2023-05-29T13:46:30;4.57;;;1.60;;
37647;SDS011;23490;53.656;10.076;2023-05-29T13:48:55;4.63;;;1.58;;
37647;SDS011;23490;53.656;10.076;2023-05-29T13:51:20;6.32;;;1.65;;
37647;SDS011;23490;53.656;10.076;2023-05-29T13:53:46;7.20;;;1.80;;
37647;SDS011;23490;53.656;10.076;2023-05-29T13:56:12;6.22;;;2.35;;
37647;SDS011;23490;53.656;10.076;2023-05-29T13:58:37;7.57;;;2.33;;
37647;SDS011;23490;53.656;10.076;2023-05-29T14:01:02;5.80;;;1.90;;
37647;SDS011;23490;53.656;10.076;2023-05-29T14:03:28;8.85;;;2.08;;
37647;SDS011;23490;53.656;10.076;2023-05-29T14:05:56;5.95;;;1.58;;
37647;SDS011;23490;53.656;10.076;2023-05-29T14:08:22;4.75;;;1.70;;
37647;SDS011;23490;53.656;10.076;2023-05-29T14:10:47;5.88;;;1.75;;
37647;SDS011;23490;53.656;10.076;2023-05-29T14:13:12;4.70;;;1.58;;
37647;SDS011;23490;53.656;10.076;2023-05-29T14:15:38;4.93;;;1.73;;
37647;SDS011;23490;53.656;10.076;2023-05-29T14:18:03;5.10;;;2.17;;
37647;SDS011;23490;53.656;10.076;2023-05-29T14:20:28;8.25;;;1.50;;
37647;SDS011;23490;53.656;10.076;2023-05-29T14:22:54;4.55;;;1.40;;
37647;SDS011;23490;53.656;10.076;2023-05-29T14:25:20;5.85;;;2.30;;
37647;SDS011;23490;53.656;10.076;2023-05-29T14:27:45;7.57;;;1.83;;
37647;SDS011;23490;53.656;10.076;2023-05-29T14:30:11;9.05;;;2.78;;
37647;SDS011;23490;53.656;10.076;2023-05-29T14:32:36;5.72;;;1.83;;
37647;SDS011;23490;53.656;10.076;2023-05-29T14:35:01;7.03;;;2.17;;
37647;SDS011;23490;53.656;10.076;2023-05-29T14:37:27;5.45;;;2.15;;
37647;SDS011;23490;53.656;10.076;2023-05-29T14:39:52;6.03;;;1.92;;
37647;SDS011;23490;53.656;10.076;2023-05-29T14:42:17;5.45;;;1.65;;
37647;SDS011;23490;53.656;10.076;2023-05-29T14:44:43;10.93;;;5.22;;